Time;durP1;ratioP1;P1;durP2;ratioP2;P2;SDS_P1;SDS_P2;PMS_P1;PMS_P2;Temp;Humidity;BMP_temperature;BMP_pressure;BME280_temperature;BME280_humidity;BME280_pressure;Samples;Min_cycle;Max_cycle;Signal;HPM_P1;HPM_P2
2022/10/10 00:01:20;;;;;;;10.00;5.87;;;;;;;6.61;79.88;99444.72;1687552;84;25687;-62
2022/10/10 00:03:47;;;;;;;10.82;5.45;;;;;;;6.64;80.02;99447.45;1687294;85;25650;-62
2022/10/10 00:06:14;;;;;;;11.95;6.47;;;;;;;6.60;80.20;99447.72;1687543;85;26544;-57
2022/10/10 00:08:41;;;;;;;12.68;6.05;;;;;;;6.56;80.17;99447.42;1687636;85;25629;-58
2022/10/10 00:11:09;;;;;;;11.05;5.78;;;;;;;6.49;80.67;99443.60;1687606;84;27441;-57
2022/10/10 00:13:36;;;;;;;13.28;6.92;;;;;;;6.43;80.91;99440.58;1687248;85;26109;-58
2022/10/10 00:16:03;;;;;;;13.70;7.72;;;;;;;6.39;81.16;99436.20;1687372;85;25709;-61
2022/10/10 00:18:31;;;;;;;13.95;7.72;;;;;;;6.37;80.97;99439.75;1687320;85;25705;-60
2022/10/10 00:20:58;;;;;;;12.18;7.05;;;;;;;6.37;80.93;99441.65;1687334;85;25524;-60
2022/10/10 00:23:24;;;;;;;13.88;7.75;;;;;;;6.36;81.10;99427.77;1687685;85;27457;-59
2022/10/10 00:25:51;;;;;;;8.53;4.78;;;;;;;6.30;81.14;99433.71;1687719;85;25643;-58
2022/10/10 00:28:18;;;;;;;14.70;7.42;;;;;;;6.26;81.40;99426.64;1683522;85;26492;-57
2022/10/10 00:30:45;;;;;;;11.48;6.75;;;;;;;6.23;81.48;99431.25;1687316;84;25835;-60
2022/10/10 00:33:12;;;;;;;15.72;8.68;;;;;;;6.17;81.92;99424.68;1687469;85;25680;-57
2022/10/10 00:35:39;;;;;;;14.83;8.03;;;;;;;6.15;81.41;99427.66;1687710;84;27397;-57
2022/10/10 00:38:05;;;;;;;14.85;8.03;;;;;;;6.12;81.53;99429.02;1687121;84;25800;-57
2022/10/10 00:40:33;;;;;;;13.03;7.65;;;;;;;6.12;81.74;99414.05;1687479;85;25690;-57
2022/10/10 00:42:59;;;;;;;13.35;7.70;;;;;;;6.07;82.30;99425.47;1687120;85;25745;-57
2022/10/10 00:45:31;;;;;;;14.33;8.28;;;;;;;6.05;82.42;99423.01;1687462;85;25761;-57
2022/10/10 00:48:27;;;;;;;11.68;5.35;;;;;;;5.99;82.20;99416.67;1676199;85;27373;-58
2022/10/10 00:51:12;;;;;;;11.00;6.80;;;;;;;5.97;82.31;99415.30;1666557;85;25917;-58
2022/10/10 00:53:46;;;;;;;14.78;7.95;;;;;;;5.90;82.63;99416.36;1643367;86;25738;-57
2022/10/10 00:56:14;;;;;;;16.20;8.73;;;;;;;5.85;83.01;99412.80;1651985;86;25690;-57
2022/10/10 00:58:46;;;;;;;11.60;7.62;;;;;;;5.81;83.25;99420.66;1639471;87;25640;-57
2022/10/10 01:01:12;;;;;;;13.13;7.78;;;;;;;5.81;82.99;99417.14;1654242;86;27484;-57
2022/10/10 01:03:39;;;;;;;13.72;8.05;;;;;;;5.76;83.40;99417.92;1653593;86;25510;-57
2022/10/10 01:06:06;;;;;;;10.38;5.90;;;;;;;5.70;83.62;99421.13;1654154;86;25616;-58
2022/10/10 01:08:33;;;;;;;18.02;8.90;;;;;;;5.69;83.81;99418.67;1654019;86;25762;-57
2022/10/10 01:11:41;;;;;;;14.85;7.25;;;;;;;5.69;83.29;99416.78;1653862;86;25653;-57
2022/10/10 01:14:18;;;;;;;13.80;7.42;;;;;;;5.63;84.00;99412.39;1652071;86;26972;-57
2022/10/10 01:17:08;;;;;;;15.00;8.48;;;;;;;5.59;83.97;99411.28;1651519;86;25500;-58
2022/10/10 01:19:46;;;;;;;12.80;8.13;;;;;;;5.51;84.20;99410.70;1648013;86;25664;-57
2022/10/10 01:23:06;;;;;;;15.25;9.48;;;;;;;5.47;84.19;99410.12;1639618;87;26545;-58
2022/10/10 01:25:53;;;;;;;9.97;6.17;;;;;;;5.42;84.16;99407.35;1652065;86;25430;-57
2022/10/10 01:28:55;;;;;;;13.13;7.80;;;;;;;5.38;84.45;99405.16;1651824;86;27389;-57
2022/10/10 01:31:25;;;;;;;14.87;8.60;;;;;;;5.34;84.61;99404.05;1652158;86;25426;-58
2022/10/10 01:34:25;;;;;;;15.70;8.95;;;;;;;5.33;84.72;99398.87;1652054;86;25588;-57
2022/10/10 01:37:09;;;;;;;14.87;8.18;;;;;;;5.34;84.51;99399.14;1652131;86;25697;-62
2022/10/10 01:39:58;;;;;;;16.55;8.50;;;;;;;5.30;84.84;99392.06;1651831;86;25615;-62
2022/10/10 01:42:36;;;;;;;12.95;5.87;;;;;;;5.31;84.65;99388.78;1639268;87;28269;-61
2022/10/10 01:45:04;;;;;;;11.80;7.10;;;;;;;5.27;85.23;99389.87;1651904;86;25860;-62
2022/10/10 01:47:30;;;;;;;12.75;6.83;;;;;;;5.22;85.34;99392.53;1639565;87;25644;-61
2022/10/10 01:50:02;;;;;;;16.05;7.95;;;;;;;5.20;85.31;99390.61;1639694;87;26065;-62
2022/10/10 01:52:42;;;;;;;14.35;8.25;;;;;;;5.16;85.51;99386.25;1644728;86;25531;-62
2022/10/10 01:55:54;;;;;;;16.15;7.87;;;;;;;5.16;85.47;99387.61;1674560;85;27392;-62
2022/10/10 01:58:46;;;;;;;;;;;;;;;5.11;85.97;99380.23;1678230;85;25650;-62
2022/10/10 02:01:24;;;;;;;11.68;6.72;;;;;;;5.12;85.73;99383.75;1668218;86;25762;-59
2022/10/10 02:03:56;;;;;;;13.95;8.23;;;;;;;5.17;85.82;99379.72;1675799;85;25959;-59
2022/10/10 02:06:27;;;;;;;13.65;7.95;;;;;;;5.22;85.37;99378.95;1666993;86;25738;-60
2022/10/10 02:09:01;;;;;;;11.38;6.42;;;;;;;5.21;85.57;99378.12;1687370;84;27614;-60
2022/10/10 02:11:32;;;;;;;15.03;8.43;;;;;;;5.24;85.70;99376.80;1687752;85;26037;-59
2022/10/10 02:14:25;;;;;;;9.30;5.35;;;;;;;5.24;85.23;99376.23;1676477;84;25661;-57
2022/10/10 02:16:55;;;;;;;13.28;6.25;;;;;;;5.17;85.67;99381.08;1676127;85;25700;-55
2022/10/10 02:19:23;;;;;;;21.12;7.95;;;;;;;5.13;85.79;99377.25;1675885;85;25604;-55
2022/10/10 02:21:52;;;;;;;15.70;8.18;;;;;;;5.13;85.68;99378.05;1668068;86;27497;-59
2022/10/10 02:24:23;;;;;;;10.58;5.85;;;;;;;5.15;85.53;99375.91;1668213;86;25662;-56
2022/10/10 02:27:00;;;;;;;12.82;7.30;;;;;;;5.17;85.63;99372.10;1687619;85;25686;-56
2022/10/10 02:29:31;;;;;;;12.55;6.42;;;;;;;5.16;85.56;99371.30;1676170;85;25895;-55
2022/10/10 02:32:15;;;;;;;10.70;6.42;;;;;;;5.18;85.51;99365.61;1668638;84;25679;-55
2022/10/10 02:34:49;;;;;;;13.00;7.40;;;;;;;5.19;85.75;99368.59;1668383;86;27443;-56
2022/10/10 02:37:16;;;;;;;10.63;6.80;;;;;;;5.18;85.44;99363.69;1668320;86;26028;-56
2022/10/10 02:39:47;;;;;;;8.98;5.30;;;;;;;5.19;85.46;99368.06;1687343;85;25437;-55
2022/10/10 02:42:15;;;;;;;;;;;;;;;5.17;85.67;99361.23;1690176;84;26513;-55
2022/10/10 02:44:43;;;;;;;11.28;5.95;;;;;;;5.11;85.99;99361.22;1687917;84;25453;-55
2022/10/10 02:47:10;;;;;;;11.78;6.40;;;;;;;5.08;86.12;99366.34;1687686;84;28457;-59
2022/10/10 02:49:38;;;;;;;12.53;7.42;;;;;;;5.05;86.09;99362.78;1687311;85;25657;-55
2022/10/10 02:52:04;;;;;;;15.03;7.30;;;;;;;5.05;85.97;99354.63;1687464;85;25472;-55
2022/10/10 02:54:31;;;;;;;13.68;6.55;;;;;;;5.08;85.94;99354.94;1668440;84;25485;-55
2022/10/10 02:56:57;;;;;;;14.18;7.47;;;;;;;5.10;85.90;99360.91;1667944;86;25608;-55
2022/10/10 02:59:24;;;;;;;12.93;7.08;;;;;;;5.10;85.70;99353.32;1667715;86;27452;-56
2022/10/10 03:01:50;;;;;;;12.25;7.20;;;;;;;5.11;85.67;99354.42;1677757;85;25528;-59
2022/10/10 03:04:17;;;;;;;10.63;6.12;;;;;;;5.11;85.80;99351.70;1677561;85;25595;-59
2022/10/10 03:06:44;;;;;;;13.28;6.47;;;;;;;5.12;85.57;99347.06;1676444;85;25915;-59
2022/10/10 03:09:11;;;;;;;13.75;6.90;;;;;;;5.10;85.77;99355.48;1667283;86;26032;-59
2022/10/10 03:11:50;;;;;;;7.45;4.50;;;;;;;5.08;85.71;99348.15;1667438;86;27915;-59
2022/10/10 03:14:25;;;;;;;13.00;6.70;;;;;;;5.02;85.98;99342.39;1667214;85;25631;-59
2022/10/10 03:17:03;;;;;;;13.88;7.87;;;;;;;5.01;86.08;99339.41;1651878;85;25597;-59
2022/10/10 03:19:43;;;;;;;12.68;6.97;;;;;;;4.98;86.08;99342.08;1648390;86;25965;-57
2022/10/10 03:22:13;;;;;;;10.18;5.70;;;;;;;4.97;86.17;99336.91;1648521;87;33069;-59
2022/10/10 03:24:46;;;;;;;12.33;7.08;;;;;;;4.97;86.13;99339.63;1648389;86;28755;-59
2022/10/10 03:27:10;;;;;;;12.07;7.23;;;;;;;4.99;85.89;99336.12;1650716;84;25670;-59
2022/10/10 03:29:36;;;;;;;11.57;6.45;;;;;;;5.02;85.56;99332.36;1648518;86;25456;-59
2022/10/10 03:32:02;;;;;;;14.28;7.40;;;;;;;5.02;85.70;99340.50;1648792;86;25757;-60
2022/10/10 03:34:29;;;;;;;12.03;5.85;;;;;;;5.01;85.55;99337.48;1648530;87;25522;-60
2022/10/10 03:36:55;;;;;;;10.03;5.58;;;;;;;4.98;85.59;99335.84;1648514;86;27459;-59
2022/10/10 03:39:21;;;;;;;13.45;7.20;;;;;;;4.94;85.71;99334.18;1634608;87;25709;-59
2022/10/10 03:41:52;;;;;;;10.28;5.35;;;;;;;4.88;85.89;99333.33;1644147;87;25636;-60
2022/10/10 03:44:18;;;;;;;10.90;6.10;;;;;;;4.85;86.01;99325.70;1644676;86;25641;-60
2022/10/10 03:46:44;;;;;;;12.05;6.40;;;;;;;4.79;86.21;99331.33;1644243;87;25708;-59
2022/10/10 03:49:10;;;;;;;9.48;5.70;;;;;;;4.78;86.26;99333.25;1644109;86;27479;-62
2022/10/10 03:51:36;;;;;;;13.75;6.78;;;;;;;4.74;86.40;99322.60;1644355;87;25469;-61
2022/10/10 03:54:03;;;;;;;9.88;5.78;;;;;;;4.73;86.31;99325.88;1644041;87;25482;-58
2022/10/10 03:56:29;;;;;;;13.48;6.83;;;;;;;4.71;86.44;99323.12;1644314;86;25865;-62
2022/10/10 03:58:59;;;;;;;12.05;6.55;;;;;;;4.74;86.43;99326.67;1644177;87;25466;-59
2022/10/10 04:01:23;;;;;;;14.87;6.92;;;;;;;4.72;86.24;99324.22;1643670;87;25902;-59
2022/10/10 04:03:49;;;;;;;14.87;6.22;;;;;;;4.74;86.15;99322.07;1644244;86;25464;-59
2022/10/10 04:06:16;;;;;;;13.48;6.78;;;;;;;4.78;86.05;99325.10;1644355;86;25623;-60
2022/10/10 04:08:42;;;;;;;11.03;7.10;;;;;;;4.79;85.80;99322.66;1644224;86;25733;-59
2022/10/10 04:11:08;;;;;;;12.30;6.87;;;;;;;4.83;85.76;99322.41;1644142;87;25714;-59
2022/10/10 04:13:34;;;;;;;10.40;5.55;;;;;;;4.85;85.78;99322.16;1644240;86;27544;-59
2022/10/10 04:16:01;;;;;;;10.45;5.15;;;;;;;4.85;85.70;99318.91;1644136;86;25511;-55
2022/10/10 04:18:27;;;;;;;8.35;4.12;;;;;;;4.79;85.74;99321.83;1644203;86;25545;-55
2022/10/10 04:20:53;;;;;;;12.68;6.28;;;;;;;4.71;86.03;99322.59;1644135;87;25664;-56
2022/10/10 04:23:19;;;;;;;10.55;5.17;;;;;;;4.70;86.15;99321.48;1644057;87;25652;-59
2022/10/10 04:25:46;;;;;;;13.80;6.62;;;;;;;4.61;86.70;99321.14;1644095;87;27459;-56
2022/10/10 04:28:15;;;;;;;10.25;6.12;;;;;;;4.58;86.62;99313.52;1641840;86;25690;-55
2022/10/10 04:30:41;;;;;;;11.70;5.92;;;;;;;4.59;86.42;99317.86;1646079;87;25472;-55
2022/10/10 04:33:07;;;;;;;13.68;6.45;;;;;;;4.60;86.43;99318.96;1645745;86;27899;-55
2022/10/10 04:35:34;;;;;;;13.60;6.45;;;;;;;4.60;86.63;99320.31;1646341;86;25503;-55
2022/10/10 04:38:00;;;;;;;13.45;6.67;;;;;;;4.62;86.36;99320.89;1646337;86;27589;-55
2022/10/10 04:40:26;;;;;;;12.53;6.85;;;;;;;4.62;86.14;99314.10;1645904;87;25695;-57
2022/10/10 04:42:54;;;;;;;13.25;6.95;;;;;;;4.62;86.17;99317.34;1646131;87;25569;-56
2022/10/10 04:45:31;;;;;;;10.50;6.12;;;;;;;4.59;86.33;99313.26;1646157;87;25758;-55
2022/10/10 04:47:55;;;;;;;12.90;6.22;;;;;;;4.57;86.35;99316.76;1645214;87;25545;-56
2022/10/10 04:50:22;;;;;;;10.10;6.10;;;;;;;4.51;86.41;99312.36;1646278;87;28081;-55
2022/10/10 04:52:48;;;;;;;9.68;6.08;;;;;;;4.49;86.55;99309.09;1645867;87;25501;-55
2022/10/10 04:55:15;;;;;;;13.38;7.60;;;;;;;4.45;86.60;99309.31;1665162;86;25497;-56
2022/10/10 04:57:41;;;;;;;12.60;7.08;;;;;;;4.44;86.68;99307.68;1665855;86;25746;-55
2022/10/10 05:00:09;;;;;;;12.07;6.47;;;;;;;4.43;86.61;99307.41;1665387;86;25699;-55
2022/10/10 05:02:35;;;;;;;11.28;6.05;;;;;;;4.44;86.69;99305.80;1665806;86;27419;-55
2022/10/10 05:05:02;;;;;;;11.00;6.78;;;;;;;4.43;86.67;99306.05;1665330;86;25492;-55
2022/10/10 05:07:28;;;;;;;10.25;6.25;;;;;;;4.43;86.61;99304.70;1665431;86;25696;-55
2022/10/10 05:09:54;;;;;;;10.50;6.45;;;;;;;4.43;86.59;99304.70;1665877;86;25756;-55
2022/10/10 05:12:20;;;;;;;11.63;6.30;;;;;;;4.45;86.70;99305.23;1665516;86;25669;-55
2022/10/10 05:14:47;;;;;;;10.53;6.80;;;;;;;4.47;86.56;99303.92;1665819;86;27411;-56
2022/10/10 05:17:13;;;;;;;12.07;6.70;;;;;;;4.49;86.42;99305.03;1665451;86;26083;-55
2022/10/10 05:19:39;;;;;;;10.60;5.78;;;;;;;4.49;86.42;99294.17;1665889;86;25438;-56
2022/10/10 05:22:06;;;;;;;9.95;6.08;;;;;;;4.49;86.58;99294.17;1665475;86;26557;-56
2022/10/10 05:24:32;;;;;;;7.97;4.87;;;;;;;4.46;86.63;99299.55;1666003;86;25597;-55
2022/10/10 05:26:58;;;;;;;6.62;4.30;;;;;;;4.45;86.78;99299.81;1665695;86;27483;-56
2022/10/10 05:29:24;;;;;;;9.38;6.10;;;;;;;4.42;86.92;99292.18;1665750;86;25454;-55
2022/10/10 05:31:51;;;;;;;12.60;6.67;;;;;;;4.41;86.94;99296.81;1665747;86;25699;-55
2022/10/10 05:34:17;;;;;;;11.55;6.37;;;;;;;4.41;87.02;99297.34;1665793;86;25850;-55
2022/10/10 05:36:43;;;;;;;10.58;6.40;;;;;;;4.42;87.13;99299.80;1665836;86;25516;-56
2022/10/10 05:39:09;;;;;;;15.63;7.80;;;;;;;4.43;87.12;99291.13;1665410;86;27463;-55
2022/10/10 05:41:36;;;;;;;13.65;7.90;;;;;;;4.47;87.22;99297.67;1665761;86;25512;-60
2022/10/10 05:44:02;;;;;;;13.18;6.95;;;;;;;4.49;87.24;99297.69;1665359;86;25770;-62
2022/10/10 05:46:28;;;;;;;13.15;6.85;;;;;;;4.57;87.01;99292.33;1665477;86;26529;-58
2022/10/10 05:48:54;;;;;;;10.45;5.80;;;;;;;4.60;86.90;99294.53;1663041;86;25293;-56
2022/10/10 05:51:21;;;;;;;14.63;7.17;;;;;;;4.67;86.91;99286.18;1666412;86;27418;-59
2022/10/10 05:53:47;;;;;;;15.23;8.25;;;;;;;4.72;86.82;99288.92;1665324;86;25793;-59
2022/10/10 05:56:15;;;;;;;14.18;7.67;;;;;;;4.77;86.67;99287.61;1653882;86;25453;-60
2022/10/10 05:58:43;;;;;;;14.47;6.67;;;;;;;4.85;86.44;99290.92;1657438;86;26589;-59
2022/10/10 06:01:09;;;;;;;10.05;6.33;;;;;;;4.87;86.45;99281.42;1658044;86;25265;-61
2022/10/10 06:03:36;;;;;;;12.90;7.47;;;;;;;4.90;86.57;99278.19;1657576;86;27494;-59
2022/10/10 06:06:03;;;;;;;15.75;7.83;;;;;;;4.95;86.56;99283.41;1657572;86;25509;-58
2022/10/10 06:08:31;;;;;;;10.65;6.65;;;;;;;5.02;86.49;99282.63;1658637;86;25678;-59
2022/10/10 06:11:07;;;;;;;17.37;7.28;;;;;;;5.11;86.32;99282.95;1657852;86;25746;-57
2022/10/10 06:13:34;;;;;;;12.18;6.58;;;;;;;5.21;86.08;99293.08;1658005;86;25442;-61
2022/10/10 06:16:01;;;;;;;11.57;4.95;;;;;;;5.30;85.84;99291.51;1657978;86;28197;-60
2022/10/10 06:18:27;;;;;;;16.85;7.92;;;;;;;5.38;85.85;99299.68;1657620;85;25682;-59
2022/10/10 06:20:54;;;;;;;14.05;7.15;;;;;;;5.49;85.64;99299.20;1658316;85;25631;-60
2022/10/10 06:23:20;;;;;;;12.10;6.17;;;;;;;5.61;85.41;99302.53;1656942;86;25748;-60
2022/10/10 06:25:48;;;;;;;9.90;4.85;;;;;;;5.72;84.87;99308.83;1657082;86;25496;-58
2022/10/10 06:28:14;;;;;;;14.90;7.00;;;;;;;5.78;84.78;99302.86;1655501;86;29559;-57
2022/10/10 06:30:44;;;;;;;9.55;4.10;;;;;;;5.81;84.70;99298.26;1657648;85;25707;-56
2022/10/10 06:33:12;;;;;;;11.53;6.85;;;;;;;5.88;84.47;99297.45;1658038;86;25682;-56
2022/10/10 06:35:42;;;;;;;9.73;5.53;;;;;;;5.99;84.27;99304.32;1657928;85;25918;-56
2022/10/10 06:38:10;;;;;;;18.37;7.22;;;;;;;6.10;83.72;99299.20;1657353;85;26171;-57
2022/10/10 06:40:36;;;;;;;12.33;6.33;;;;;;;6.21;84.01;99304.66;1655324;86;27648;-56
2022/10/10 06:43:03;;;;;;;13.20;6.42;;;;;;;6.28;83.63;99292.43;1657198;86;25742;-55
2022/10/10 06:45:29;;;;;;;10.88;6.78;;;;;;;6.37;83.43;99292.74;1654441;85;25868;-57
2022/10/10 06:47:56;;;;;;;11.70;5.78;;;;;;;6.48;83.11;99298.19;1667332;85;25760;-58
2022/10/10 06:50:22;;;;;;;10.50;6.35;;;;;;;6.64;82.41;99301.73;1666717;85;25632;-56
2022/10/10 06:52:49;;;;;;;11.25;6.55;;;;;;;6.81;82.02;99297.92;1665809;85;29571;-56
2022/10/10 06:55:15;;;;;;;9.08;5.25;;;;;;;6.95;81.87;99294.93;1668971;85;25757;-58
2022/10/10 06:57:42;;;;;;;9.53;5.22;;;;;;;7.08;81.44;99298.20;1670198;85;25622;-58
2022/10/10 07:00:09;;;;;;;11.55;7.12;;;;;;;7.25;80.82;99297.33;1670241;85;25662;-58
2022/10/10 07:02:39;;;;;;;10.63;6.50;;;;;;;7.33;80.82;99297.86;1670310;85;25607;-56
2022/10/10 07:05:07;;;;;;;9.08;5.45;;;;;;;7.52;80.74;99298.89;1669759;85;26311;-60
2022/10/10 07:07:34;;;;;;;10.50;6.05;;;;;;;7.73;79.97;99299.37;1670326;85;25501;-60
2022/10/10 07:10:01;;;;;;;13.55;6.67;;;;;;;7.89;79.06;99291.96;1670319;85;25660;-59
2022/10/10 07:12:27;;;;;;;9.38;4.37;;;;;;;8.08;79.34;99300.31;1670103;85;25912;-60
2022/10/10 07:14:54;;;;;;;9.65;5.15;;;;;;;8.21;77.76;99297.53;1669978;85;25639;-60
2022/10/10 07:17:20;;;;;;;7.75;4.05;;;;;;;8.32;78.02;99296.89;1670335;85;27626;-60
2022/10/10 07:19:47;;;;;;;10.80;6.22;;;;;;;8.30;77.54;99295.01;1670016;85;25651;-59
2022/10/10 07:22:13;;;;;;;11.22;7.03;;;;;;;8.36;78.10;99288.42;1670576;85;25624;-57
2022/10/10 07:24:40;;;;;;;12.93;6.60;;;;;;;8.50;78.00;99294.06;1671297;85;25790;-56
2022/10/10 07:27:06;;;;;;;11.45;5.47;;;;;;;8.62;77.25;99295.09;1671642;85;25515;-61
2022/10/10 07:29:33;;;;;;;10.08;5.75;;;;;;;8.82;76.58;99296.03;1671426;85;27419;-60
2022/10/10 07:31:59;;;;;;;10.08;6.00;;;;;;;9.01;76.04;99288.50;1671630;85;25676;-61
2022/10/10 07:34:26;;;;;;;8.65;6.10;;;;;;;9.14;75.79;99296.02;1671431;85;25752;-58
2022/10/10 07:36:52;;;;;;;8.98;5.35;;;;;;;9.41;75.34;99295.19;1671364;85;25819;-58
2022/10/10 07:39:23;;;;;;;11.97;6.47;;;;;;;9.64;74.08;99285.36;1671793;85;25503;-57
2022/10/10 07:41:51;;;;;;;12.18;6.00;;;;;;;9.88;74.66;99291.92;1667893;85;27491;-59
2022/10/10 07:44:18;;;;;;;6.80;4.25;;;;;;;10.15;73.62;99294.03;1670426;85;25634;-58
2022/10/10 07:46:45;;;;;;;8.98;5.58;;;;;;;10.29;72.82;99282.33;1670656;85;25732;-61
2022/10/10 07:49:11;;;;;;;8.13;5.15;;;;;;;10.52;72.68;99288.88;1670341;85;25772;-60
2022/10/10 07:51:38;;;;;;;10.78;6.08;;;;;;;10.71;71.75;99282.53;1670083;85;25693;-61
2022/10/10 07:54:05;;;;;;;7.22;4.42;;;;;;;10.88;71.43;99285.30;1667417;85;27547;-59
2022/10/10 07:56:32;;;;;;;10.03;6.08;;;;;;;11.16;70.51;99282.59;1644364;87;25511;-60
2022/10/10 07:58:59;;;;;;;10.75;6.45;;;;;;;11.46;70.47;99286.45;1638093;85;25678;-60
2022/10/10 08:01:26;;;;;;;11.43;6.22;;;;;;;11.85;69.17;99284.29;1633638;87;26518;-60
2022/10/10 08:03:57;;;;;;;9.93;6.22;;;;;;;11.90;68.20;99279.52;1633873;87;25626;-60
2022/10/10 08:06:23;;;;;;;;;;;;;;;11.98;68.66;99279.91;1636370;87;27427;-60
2022/10/10 08:08:49;;;;;;;10.95;5.85;;;;;;;12.20;68.12;99279.17;1633507;87;25457;-60
2022/10/10 08:11:17;;;;;;;9.58;6.40;;;;;;;12.37;67.48;99280.44;1633804;87;25413;-58
2022/10/10 08:13:43;;;;;;;9.30;5.70;;;;;;;12.72;66.79;99272.47;1633780;87;25699;-56
2022/10/10 08:16:10;;;;;;;10.82;6.20;;;;;;;13.12;66.22;99275.86;1633573;87;25511;-57
2022/10/10 08:18:36;;;;;;;12.13;7.00;;;;;;;13.45;64.56;99278.86;1634081;87;27457;-57
2022/10/10 08:21:07;;;;;;;8.93;5.80;;;;;;;13.82;62.49;99269.05;1633439;87;27211;-60
2022/10/10 08:23:35;;;;;;;8.65;5.65;;;;;;;13.82;62.49;99269.05;1632499;87;25617;-57
2022/10/10 08:26:05;;;;;;;8.48;5.45;;;;;;;14.01;62.66;99263.78;1633838;87;25875;-61
2022/10/10 08:28:32;;;;;;;;;;;;;;;14.17;61.84;99258.05;1636232;87;25537;-62
2022/10/10 08:30:59;;;;;;;12.03;5.85;;;;;;;14.46;62.07;99266.83;1633571;87;27518;-62
2022/10/10 08:33:26;;;;;;;10.93;6.28;;;;;;;14.78;61.13;99256.97;1633577;87;25749;-62
2022/10/10 08:35:53;;;;;;;8.75;6.17;;;;;;;15.06;60.97;99258.00;1633646;87;25670;-63
2022/10/10 08:38:19;;;;;;;8.65;6.47;;;;;;;15.38;60.05;99254.39;1629851;87;26183;-62
2022/10/10 08:40:50;;;;;;;12.58;6.12;;;;;;;15.81;59.58;99253.12;1634004;87;25496;-61
2022/10/10 08:43:22;;;;;;;9.20;5.95;;;;;;;16.16;58.53;99246.56;1633235;87;27506;-63
2022/10/10 08:45:51;;;;;;;10.40;5.45;;;;;;;16.41;57.98;99250.84;1633738;87;25861;-63
2022/10/10 08:48:22;;;;;;;6.87;5.03;;;;;;;16.53;56.07;99245.34;1634081;87;25459;-62
2022/10/10 08:51:01;;;;;;;8.20;5.42;;;;;;;16.60;55.36;99252.28;1633896;87;26560;-62
2022/10/10 08:53:41;;;;;;;8.43;5.70;;;;;;;16.98;56.16;99245.72;1633833;87;25642;-62
2022/10/10 08:56:12;;;;;;;6.92;5.35;;;;;;;17.10;53.39;99238.63;1633191;85;27160;-62
2022/10/10 08:58:44;;;;;;;7.50;4.83;;;;;;;17.35;54.41;99243.61;1633332;87;25662;-63
2022/10/10 09:01:24;;;;;;;8.53;4.90;;;;;;;17.51;51.85;99244.31;1631818;87;25576;-62
2022/10/10 09:03:57;;;;;;;7.40;4.42;;;;;;;17.67;52.09;99245.80;1633267;87;25911;-62
2022/10/10 09:06:57;;;;;;;8.53;5.58;;;;;;;17.98;50.64;99240.78;1633153;87;25502;-58
2022/10/10 09:09:47;;;;;;;8.73;5.05;;;;;;;18.26;50.24;99239.50;1633259;87;27274;-58
2022/10/10 09:12:43;;;;;;;7.47;5.28;;;;;;;18.22;50.07;99233.61;1633636;87;25638;-60
2022/10/10 09:15:46;;;;;;;7.83;5.37;;;;;;;18.00;49.85;99235.14;1632930;87;25701;-59
2022/10/10 09:18:38;;;;;;;7.72;5.50;;;;;;;18.04;51.33;99226.91;1633282;86;27854;-58
2022/10/10 09:21:24;;;;;;;8.50;5.70;;;;;;;18.61;49.36;99233.92;1633258;87;25661;-63
2022/10/10 09:24:18;;;;;;;8.75;5.25;;;;;;;18.51;49.11;99224.72;1633088;87;27490;-61
2022/10/10 09:26:52;;;;;;;11.18;6.22;;;;;;;18.76;48.54;99214.86;1633459;87;25642;-63
2022/10/10 09:29:47;;;;;;;6.72;5.45;;;;;;;19.18;48.82;99219.16;1633177;87;25687;-62
2022/10/10 09:32:33;;;;;;;9.65;6.17;;;;;;;19.63;48.09;99204.52;1633045;87;25769;-59
2022/10/10 09:35:17;;;;;;;7.90;5.00;;;;;;;19.93;47.72;99204.02;1633176;87;25444;-57
2022/10/10 09:37:44;;;;;;;6.05;5.03;;;;;;;20.08;45.84;99203.52;1632993;87;28677;-57
2022/10/10 09:40:25;;;;;;;9.20;5.03;;;;;;;20.36;46.30;99198.34;1633017;87;25446;-57
2022/10/10 09:42:52;;;;;;;8.05;5.22;;;;;;;20.29;45.63;99193.42;1633316;87;25664;-58
2022/10/10 09:45:33;;;;;;;7.53;4.75;;;;;;;20.69;46.30;99199.17;1633185;87;25770;-60
2022/10/10 09:47:59;;;;;;;10.63;5.30;;;;;;;21.02;44.34;99200.37;1632881;87;25613;-62
2022/10/10 09:50:26;;;;;;;6.80;5.35;;;;;;;21.11;44.39;99202.32;1633194;87;27471;-63
2022/10/10 09:52:55;;;;;;;8.83;5.42;;;;;;;21.01;44.97;99198.77;1633262;87;25758;-62
2022/10/10 09:55:35;;;;;;;6.15;4.83;;;;;;;21.34;43.69;99198.70;1633599;86;25667;-59
2022/10/10 09:58:16;;;;;;;9.05;5.03;;;;;;;21.25;43.99;99196.19;1633048;87;25671;-59
2022/10/10 10:00:43;;;;;;;9.48;6.60;;;;;;;21.42;44.06;99187.86;1633532;87;25424;-58
2022/10/10 10:03:21;;;;;;;6.90;5.47;;;;;;;22.01;44.31;99183.94;1633221;87;27474;-60
2022/10/10 10:05:59;;;;;;;6.35;4.70;;;;;;;22.38;41.71;99176.80;1633332;87;25702;-62
2022/10/10 10:08:33;;;;;;;6.60;4.65;;;;;;;22.00;42.04;99182.92;1633567;87;25655;-58
2022/10/10 10:11:00;;;;;;;7.85;5.50;;;;;;;22.09;42.12;99179.25;1633552;87;25833;-60
2022/10/10 10:13:32;;;;;;;10.78;5.83;;;;;;;21.63;42.32;99181.59;1647351;86;25620;-61
2022/10/10 10:16:30;;;;;;;6.90;4.75;;;;;;;21.76;42.50;99175.25;1633526;87;28031;-61
2022/10/10 10:19:07;;;;;;;7.53;4.90;;;;;;;22.06;41.42;99176.64;1632050;87;25499;-59
2022/10/10 10:21:30;;;;;;;9.65;4.97;;;;;;;21.85;41.89;99169.38;1633893;86;25625;-59
2022/10/10 10:24:04;;;;;;;7.42;4.47;;;;;;;21.85;42.29;99170.77;1633611;87;25831;-58
2022/10/10 10:26:43;;;;;;;5.58;4.47;;;;;;;22.06;41.91;99173.03;1635239;86;25705;-59
2022/10/10 10:29:30;;;;;;;7.08;4.53;;;;;;;22.47;41.40;99176.49;1633776;87;27395;-59
2022/10/10 10:32:29;;;;;;;6.28;4.72;;;;;;;22.74;40.57;99173.59;1633086;86;25528;-59
2022/10/10 10:35:34;;;;;;;5.62;4.45;;;;;;;23.25;41.77;99166.23;1633737;87;25451;-61
2022/10/10 10:38:38;;;;;;;6.25;4.58;;;;;;;23.90;39.18;99155.48;1633208;87;25768;-58
2022/10/10 10:41:36;;;;;;;6.70;4.53;;;;;;;23.98;39.21;99159.11;1633474;87;25490;-60
2022/10/10 10:44:23;;;;;;;6.72;4.95;;;;;;;24.14;39.16;99160.78;1633054;86;27495;-60
2022/10/10 10:47:15;;;;;;;7.15;4.58;;;;;;;24.14;39.64;99150.98;1633070;87;25503;-59
2022/10/10 10:50:15;;;;;;;5.00;4.35;;;;;;;24.46;39.54;99146.70;1633726;86;25654;-58
2022/10/10 10:53:05;;;;;;;7.20;5.03;;;;;;;25.09;37.43;99151.16;1633598;87;26472;-60
2022/10/10 10:56:07;;;;;;;;;;;;;;;25.38;37.84;99137.09;1646563;85;25655;-58
2022/10/10 10:59:03;;;;;;;6.65;3.90;;;;;;;25.76;37.21;99136.66;1671442;85;27449;-63
2022/10/10 11:01:37;;;;;;;7.53;4.33;;;;;;;26.03;35.05;99136.13;1671556;85;25608;-59
2022/10/10 11:04:27;;;;;;;5.47;4.22;;;;;;;26.16;36.28;99128.84;1683053;84;25606;-62
2022/10/10 11:07:14;;;;;;;6.80;4.53;;;;;;;26.20;36.06;99128.83;1676049;85;26368;-59
2022/10/10 11:09:50;;;;;;;5.67;4.15;;;;;;;26.37;35.22;99128.57;1671920;84;25264;-58
2022/10/10 11:12:46;;;;;;;5.75;4.25;;;;;;;26.39;35.37;99122.54;1675785;85;27478;-58
2022/10/10 11:15:17;;;;;;;6.42;4.37;;;;;;;25.56;34.88;99112.61;1675705;85;25705;-58
2022/10/10 11:18:31;;;;;;;5.87;4.70;;;;;;;25.74;35.17;99113.20;1675806;85;25620;-59
2022/10/10 11:21:23;;;;;;;5.22;3.95;;;;;;;26.05;35.25;99107.83;1650045;86;25910;-59
2022/10/10 11:23:58;;;;;;;7.05;4.30;;;;;;;26.28;35.44;99105.09;1675024;85;25625;-60
2022/10/10 11:26:35;;;;;;;5.33;4.30;;;;;;;26.93;34.95;99105.26;1675906;85;27450;-62
2022/10/10 11:29:07;;;;;;;5.92;4.42;;;;;;;27.38;33.67;99103.66;1668212;85;25706;-61
2022/10/10 11:31:41;;;;;;;5.60;4.03;;;;;;;27.44;33.83;99099.77;1668071;86;25734;-58
2022/10/10 11:34:24;;;;;;;5.00;4.05;;;;;;;27.72;33.44;99102.70;1667811;86;26136;-60
2022/10/10 11:36:55;;;;;;;6.10;5.00;;;;;;;28.09;33.51;99096.00;1675854;85;25629;-62
2022/10/10 11:39:26;;;;;;;5.65;4.05;;;;;;;28.27;32.02;99096.52;1676110;85;27468;-62
2022/10/10 11:42:19;;;;;;;5.17;3.90;;;;;;;28.35;31.79;99094.42;1675983;85;25639;-58
2022/10/10 11:45:02;;;;;;;5.12;4.05;;;;;;;28.49;32.09;99092.63;1676246;85;25443;-59
2022/10/10 11:47:40;;;;;;;4.42;3.90;;;;;;;28.82;31.03;99083.03;1667084;86;25768;-59
2022/10/10 11:50:29;;;;;;;6.50;4.75;;;;;;;29.10;30.77;99079.52;1674708;85;25665;-62
2022/10/10 11:53:21;;;;;;;4.33;3.92;;;;;;;29.18;31.47;99078.17;1676059;85;27380;-60
2022/10/10 11:56:16;;;;;;;5.30;3.92;;;;;;;29.39;30.30;99070.52;1669221;85;25662;-59
2022/10/10 11:58:49;;;;;;;5.97;4.45;;;;;;;29.12;30.14;99071.44;1637777;87;25750;-57
2022/10/10 12:01:29;;;;;;;5.30;3.95;;;;;;;28.83;30.78;99061.24;1641101;87;25747;-60